createdAt,value
2022-12-25T00:00:05.835Z,60.63
2022-12-25T00:01:05.826Z,59.97
2022-12-25T00:02:05.744Z,60.06
2022-12-25T00:03:05.823Z,60.90
2022-12-25T00:04:05.764Z,67.89
2022-12-25T00:05:05.727Z,60.16
2022-12-25T00:06:05.715Z,62.59
2022-12-25T00:07:05.715Z,60.15
2022-12-25T00:08:05.704Z,63.19
2022-12-25T00:09:05.708Z,59.87
2022-12-25T00:10:05.715Z,59.97
2022-12-25T00:11:05.719Z,63.53
2022-12-25T00:12:05.682Z,60.54
2022-12-25T00:13:05.685Z,59.93
2022-12-25T00:14:05.695Z,60.10
2022-12-25T00:15:05.683Z,65.23
2022-12-25T00:16:05.676Z,65.27
2022-12-25T00:17:05.673Z,59.94
2022-12-25T00:18:06.247Z,60.70
2022-12-25T00:19:05.643Z,65.24
2022-12-25T00:20:05.732Z,60.41
2022-12-25T00:21:05.652Z,65.55
2022-12-25T00:22:05.621Z,60.37
2022-12-25T00:23:05.639Z,63.97
2022-12-25T00:24:05.611Z,60.06
2022-12-25T00:25:05.620Z,62.74
2022-12-25T00:26:05.606Z,63.52
2022-12-25T00:27:05.628Z,60.50
2022-12-25T00:28:05.586Z,63.00
2022-12-25T00:29:05.585Z,64.20
2022-12-25T00:30:05.575Z,60.13
2022-12-25T00:31:05.653Z,63.09
2022-12-25T00:32:05.590Z,61.62
2022-12-25T00:33:05.577Z,64.02
2022-12-25T00:34:05.569Z,63.50
2022-12-25T00:35:05.579Z,60.06
2022-12-25T00:36:05.541Z,65.95
2022-12-25T00:37:05.565Z,63.66
2022-12-25T00:38:06.259Z,62.15
2022-12-25T00:39:05.533Z,60.12
2022-12-25T00:40:05.528Z,60.51
2022-12-25T00:41:05.523Z,62.36
2022-12-25T00:42:05.504Z,59.90
2022-12-25T00:43:05.523Z,59.93
2022-12-25T00:44:05.504Z,60.00
2022-12-25T00:45:05.498Z,64.08
2022-12-25T00:46:05.528Z,59.78
2022-12-25T00:47:05.579Z,59.84
2022-12-25T00:48:05.496Z,63.36
2022-12-25T00:49:05.488Z,59.87
2022-12-25T00:50:05.479Z,60.11
2022-12-25T00:51:05.464Z,60.04
2022-12-25T00:52:06.191Z,63.00
2022-12-25T00:53:05.447Z,59.85
2022-12-25T00:54:05.625Z,59.91
2022-12-25T00:55:05.480Z,63.25
2022-12-25T00:56:05.440Z,59.98
2022-12-25T00:57:05.451Z,64.73
2022-12-25T00:58:05.418Z,59.85
2022-12-25T00:59:05.413Z,62.31
2022-12-25T01:00:05.408Z,64.62
2022-12-25T01:01:05.513Z,60.24
2022-12-25T01:02:05.484Z,59.90
2022-12-25T01:03:05.419Z,61.76
2022-12-25T01:04:05.382Z,59.80
2022-12-25T01:05:05.395Z,59.71
2022-12-25T01:06:05.373Z,59.66
2022-12-25T01:07:05.369Z,59.66
2022-12-25T01:08:05.357Z,59.74
2022-12-25T01:09:05.356Z,59.72
2022-12-25T01:10:05.362Z,59.60
2022-12-25T01:11:05.330Z,59.57
2022-12-25T01:12:05.328Z,62.22
2022-12-25T01:13:05.333Z,59.89
2022-12-25T01:14:05.331Z,61.69
2022-12-25T01:15:05.330Z,59.58
2022-12-25T01:16:05.342Z,59.59
2022-12-25T01:17:05.307Z,62.40
2022-12-25T01:18:07.899Z,59.41
2022-12-25T01:19:06.276Z,59.39
2022-12-25T01:20:05.292Z,59.41
2022-12-25T01:21:05.267Z,59.37
2022-12-25T01:22:05.267Z,59.35
2022-12-25T01:23:05.262Z,59.41
2022-12-25T01:24:05.246Z,59.39
2022-12-25T01:25:05.227Z,59.35
2022-12-25T01:26:06.250Z,59.35
2022-12-25T01:27:06.269Z,64.41
2022-12-25T01:28:05.226Z,59.43
2022-12-25T01:29:05.266Z,59.31
2022-12-25T01:30:05.227Z,59.35
2022-12-25T01:31:05.230Z,59.34
2022-12-25T01:32:05.308Z,59.25
2022-12-25T01:33:05.191Z,59.23
2022-12-25T01:34:05.190Z,59.27
2022-12-25T01:35:05.171Z,59.33
2022-12-25T01:36:05.180Z,62.45
2022-12-25T01:37:05.171Z,59.26
2022-12-25T01:38:05.180Z,59.22
2022-12-25T01:39:05.160Z,59.22
2022-12-25T01:40:05.147Z,59.28
2022-12-25T01:41:05.140Z,59.32
2022-12-25T01:42:05.154Z,59.35
2022-12-25T01:43:05.138Z,59.29
2022-12-25T01:44:05.118Z,63.38
2022-12-25T01:45:05.134Z,59.30
2022-12-25T01:46:05.150Z,59.33
2022-12-25T01:47:05.102Z,59.28
2022-12-25T01:48:05.102Z,61.66
2022-12-25T01:49:05.088Z,62.28
2022-12-25T01:50:05.108Z,65.30
2022-12-25T01:51:05.068Z,59.33
2022-12-25T01:52:05.128Z,59.29
2022-12-25T01:53:05.082Z,59.43
2022-12-25T01:54:05.083Z,62.13
2022-12-25T01:55:05.068Z,59.40
2022-12-25T01:56:05.048Z,59.42
2022-12-25T01:57:05.036Z,59.32
2022-12-25T01:58:05.052Z,59.36
2022-12-25T01:59:05.040Z,59.32
2022-12-25T02:00:05.032Z,62.21
2022-12-25T02:01:05.061Z,59.41
2022-12-25T02:02:05.266Z,59.25
2022-12-25T02:03:05.034Z,59.29
2022-12-25T02:04:05.040Z,59.25
2022-12-25T02:05:05.001Z,59.17
2022-12-25T02:06:05.005Z,66.15
2022-12-25T02:07:04.996Z,68.84
2022-12-25T02:08:04.969Z,59.32
2022-12-25T02:09:04.977Z,59.22
2022-12-25T02:10:04.972Z,63.21
2022-12-25T02:11:04.955Z,59.23
2022-12-25T02:12:04.945Z,59.40
2022-12-25T02:13:04.957Z,64.24
2022-12-25T02:14:04.938Z,59.40
2022-12-25T02:15:06.306Z,59.26
2022-12-25T02:16:06.009Z,59.31
2022-12-25T02:17:04.983Z,59.43
2022-12-25T02:18:04.937Z,59.40
2022-12-25T02:19:04.914Z,59.44
2022-12-25T02:20:04.917Z,59.42
2022-12-25T02:21:04.895Z,60.45
2022-12-25T02:22:04.919Z,61.82
2022-12-25T02:23:04.912Z,59.34
2022-12-25T02:24:04.877Z,59.44
2022-12-25T02:25:04.900Z,59.40
2022-12-25T02:26:04.889Z,59.44
2022-12-25T02:27:04.882Z,59.48
2022-12-25T02:28:04.885Z,59.46
2022-12-25T02:29:04.850Z,59.51
2022-12-25T02:30:05.847Z,59.54
2022-12-25T02:31:04.854Z,60.08
2022-12-25T02:32:04.915Z,62.41
2022-12-25T02:33:04.854Z,59.20
2022-12-25T02:34:04.857Z,59.30
2022-12-25T02:35:04.818Z,59.27
2022-12-25T02:36:04.798Z,59.21
2022-12-25T02:37:04.820Z,62.03
2022-12-25T02:38:04.814Z,59.32
2022-12-25T02:39:04.835Z,59.25
2022-12-25T02:40:04.808Z,59.28
2022-12-25T02:41:04.773Z,59.25
2022-12-25T02:42:04.800Z,59.27
2022-12-25T02:43:05.652Z,59.27
2022-12-25T02:44:05.783Z,59.28
2022-12-25T02:45:04.916Z,59.16
2022-12-25T02:46:04.801Z,59.14
2022-12-25T02:47:04.757Z,59.12
2022-12-25T02:48:04.734Z,59.11
2022-12-25T02:49:04.741Z,59.13
2022-12-25T02:50:04.758Z,59.18
2022-12-25T02:51:04.726Z,59.12
2022-12-25T02:52:04.717Z,58.98
2022-12-25T02:53:04.701Z,59.08
2022-12-25T02:54:04.708Z,59.07
2022-12-25T02:55:04.702Z,59.13
2022-12-25T02:56:04.683Z,59.01
2022-12-25T02:57:05.347Z,60.41
2022-12-25T02:58:05.726Z,59.63
2022-12-25T02:59:04.662Z,61.62
2022-12-25T03:00:05.670Z,59.09
2022-12-25T03:01:04.823Z,60.48
2022-12-25T03:02:04.758Z,60.47
2022-12-25T03:03:04.745Z,59.01
2022-12-25T03:04:04.638Z,58.90
2022-12-25T03:05:04.623Z,58.90
2022-12-25T03:06:04.657Z,58.97
2022-12-25T03:07:04.628Z,58.96
2022-12-25T03:08:04.626Z,62.69
2022-12-25T03:09:04.609Z,59.10
2022-12-25T03:10:04.619Z,62.63
2022-12-25T03:11:04.617Z,58.96
2022-12-25T03:12:04.609Z,59.18
2022-12-25T03:13:04.578Z,59.30
2022-12-25T03:14:04.715Z,59.41
2022-12-25T03:15:04.599Z,59.25
2022-12-25T03:16:04.566Z,61.00
2022-12-25T03:17:04.586Z,60.36
2022-12-25T03:18:04.589Z,59.42
2022-12-25T03:19:04.570Z,59.23
2022-12-25T03:20:04.590Z,59.43
2022-12-25T03:21:04.554Z,59.21
2022-12-25T03:22:04.531Z,62.43
2022-12-25T03:23:04.527Z,59.21
2022-12-25T03:24:04.541Z,61.60
2022-12-25T03:25:04.586Z,59.18
2022-12-25T03:26:04.523Z,61.67
2022-12-25T03:27:04.523Z,59.15
2022-12-25T03:28:04.508Z,59.29
2022-12-25T03:29:04.528Z,59.29
2022-12-25T03:30:04.492Z,59.40
2022-12-25T03:31:04.535Z,59.37
2022-12-25T03:32:04.480Z,59.33
2022-12-25T03:33:18.049Z,59.28
2022-12-25T03:34:06.550Z,61.35
2022-12-25T03:35:04.561Z,63.72
2022-12-25T03:36:04.468Z,59.24
2022-12-25T03:37:04.454Z,59.15
2022-12-25T03:38:04.457Z,59.31
2022-12-25T03:39:04.437Z,59.04
2022-12-25T03:40:04.439Z,59.08
2022-12-25T03:41:04.431Z,59.39
2022-12-25T03:42:04.422Z,61.69
2022-12-25T03:43:04.408Z,59.25
2022-12-25T03:44:04.416Z,59.07
2022-12-25T03:45:04.488Z,59.07
2022-12-25T03:46:04.430Z,58.91
2022-12-25T03:47:04.386Z,62.05
2022-12-25T03:48:04.386Z,59.03
2022-12-25T03:49:04.389Z,59.09
2022-12-25T03:50:04.376Z,59.05
2022-12-25T03:51:04.384Z,59.05
2022-12-25T03:52:04.412Z,59.21
2022-12-25T03:53:04.357Z,59.20
2022-12-25T03:54:04.364Z,61.46
2022-12-25T03:55:04.363Z,59.85
2022-12-25T03:56:04.339Z,58.98
2022-12-25T03:57:04.331Z,59.02
2022-12-25T03:58:04.348Z,63.01
2022-12-25T03:59:04.319Z,59.16
2022-12-25T04:00:04.323Z,62.33
2022-12-25T04:01:04.382Z,58.93
2022-12-25T04:02:04.505Z,58.88
2022-12-25T04:03:04.381Z,58.89
2022-12-25T04:04:04.451Z,58.86
2022-12-25T04:05:04.288Z,58.88
2022-12-25T04:06:04.295Z,58.98
2022-12-25T04:07:04.293Z,61.26
2022-12-25T04:08:04.295Z,59.50
2022-12-25T04:09:04.286Z,58.99
2022-12-25T04:10:04.265Z,58.87
2022-12-25T04:11:04.276Z,59.25
2022-12-25T04:12:04.278Z,62.42
2022-12-25T04:13:04.274Z,58.83
2022-12-25T04:14:04.286Z,58.85
2022-12-25T04:15:04.225Z,58.80
2022-12-25T04:16:04.275Z,61.36
2022-12-25T04:17:04.234Z,61.66
2022-12-25T04:18:04.263Z,61.63
2022-12-25T04:19:04.201Z,60.95
2022-12-25T04:20:04.202Z,59.85
2022-12-25T04:21:04.194Z,67.25
2022-12-25T04:22:04.187Z,58.68
2022-12-25T04:23:04.202Z,60.63
2022-12-25T04:24:04.191Z,60.08
2022-12-25T04:25:04.168Z,58.77
2022-12-25T04:26:04.161Z,62.22
2022-12-25T04:27:04.144Z,58.88
2022-12-25T04:28:04.139Z,62.48
2022-12-25T04:29:04.159Z,60.07
2022-12-25T04:30:04.138Z,59.00
2022-12-25T04:31:04.171Z,58.79
2022-12-25T04:32:04.131Z,58.75
2022-12-25T04:33:04.107Z,58.79
2022-12-25T04:34:04.121Z,58.74
2022-12-25T04:35:04.095Z,58.87
2022-12-25T04:36:04.100Z,58.82
2022-12-25T04:37:04.087Z,58.52
2022-12-25T04:38:04.095Z,58.71
2022-12-25T04:39:04.118Z,58.55
2022-12-25T04:40:04.076Z,58.46
2022-12-25T04:41:04.065Z,58.55
2022-12-25T04:42:04.053Z,58.85
2022-12-25T04:43:05.049Z,61.32
2022-12-25T04:44:04.074Z,62.02
2022-12-25T04:45:04.064Z,58.53
2022-12-25T04:46:04.086Z,58.59
2022-12-25T04:47:10.751Z,58.63
2022-12-25T04:48:06.034Z,58.73
2022-12-25T04:49:04.011Z,62.05
2022-12-25T04:50:04.063Z,58.96
2022-12-25T04:51:03.999Z,61.05
2022-12-25T04:52:04.007Z,62.51
2022-12-25T04:53:03.990Z,59.32
2022-12-25T04:54:03.988Z,62.84
2022-12-25T04:55:04.016Z,59.08
2022-12-25T04:56:03.966Z,60.90
2022-12-25T04:57:03.976Z,62.52
2022-12-25T04:58:03.988Z,60.43
2022-12-25T04:59:03.967Z,62.64
2022-12-25T05:00:04.038Z,59.10
2022-12-25T05:01:04.008Z,59.12
2022-12-25T05:02:04.043Z,59.13
2022-12-25T05:03:04.076Z,59.24
2022-12-25T05:04:03.936Z,59.12
2022-12-25T05:05:03.926Z,63.28
2022-12-25T05:06:03.979Z,62.50
2022-12-25T05:07:03.929Z,63.38
2022-12-25T05:08:03.916Z,63.35
2022-12-25T05:09:03.920Z,63.19
2022-12-25T05:10:03.887Z,59.49
2022-12-25T05:11:03.899Z,63.54
2022-12-25T05:12:03.934Z,66.78
2022-12-25T05:13:03.879Z,59.81
2022-12-25T05:14:03.873Z,63.85
2022-12-25T05:15:03.866Z,63.62
2022-12-25T05:16:04.026Z,59.21
2022-12-25T05:17:03.877Z,59.09
2022-12-25T05:18:03.894Z,59.20
2022-12-25T05:19:03.870Z,59.87
2022-12-25T05:20:03.863Z,62.01
2022-12-25T05:21:03.826Z,59.18
2022-12-25T05:22:03.843Z,59.21
2022-12-25T05:23:03.845Z,64.65
2022-12-25T05:24:03.816Z,59.29
2022-12-25T05:25:03.798Z,59.25
2022-12-25T05:26:03.792Z,59.35
2022-12-25T05:27:03.805Z,60.45
2022-12-25T05:28:03.785Z,60.47
2022-12-25T05:29:03.779Z,59.36
2022-12-25T05:30:03.776Z,61.35
2022-12-25T05:31:03.845Z,59.63
2022-12-25T05:32:03.770Z,59.62
2022-12-25T05:33:03.766Z,61.57
2022-12-25T05:34:03.764Z,61.95
2022-12-25T05:35:03.740Z,62.42
2022-12-25T05:36:03.737Z,59.43
2022-12-25T05:37:03.724Z,59.39
2022-12-25T05:38:03.721Z,63.29
2022-12-25T05:39:04.723Z,59.19
2022-12-25T05:40:04.260Z,59.25
2022-12-25T05:41:03.736Z,61.49
2022-12-25T05:42:03.738Z,59.39
2022-12-25T05:43:03.707Z,59.20
2022-12-25T05:44:03.692Z,59.30
2022-12-25T05:45:03.713Z,61.23
2022-12-25T05:46:03.705Z,60.13
2022-12-25T05:47:03.723Z,62.50
2022-12-25T05:48:03.680Z,59.31
2022-12-25T05:49:03.660Z,59.14
2022-12-25T05:50:03.678Z,59.43
2022-12-25T05:51:03.667Z,69.54
2022-12-25T05:52:03.639Z,59.62
2022-12-25T05:53:08.087Z,62.39
2022-12-25T05:54:05.628Z,62.62
2022-12-25T05:55:03.627Z,62.96
2022-12-25T05:56:03.632Z,59.71
2022-12-25T05:57:03.652Z,59.20
2022-12-25T05:58:03.634Z,63.98
2022-12-25T05:59:03.606Z,60.59
2022-12-25T06:00:03.740Z,59.10
2022-12-25T06:01:03.599Z,59.04
2022-12-25T06:02:03.692Z,59.47
2022-12-25T06:03:03.771Z,59.66
2022-12-25T06:04:08.435Z,63.00
2022-12-25T06:05:05.584Z,59.39
2022-12-25T06:06:03.564Z,59.33
2022-12-25T06:07:03.564Z,59.23
2022-12-25T06:08:03.564Z,59.56
2022-12-25T06:09:03.532Z,63.41
2022-12-25T06:10:04.524Z,63.38
2022-12-25T06:11:03.536Z,60.08
2022-12-25T06:12:03.532Z,59.73
2022-12-25T06:13:03.526Z,63.52
2022-12-25T06:14:03.521Z,59.61
2022-12-25T06:15:03.498Z,59.56
2022-12-25T06:16:03.509Z,66.97
2022-12-25T06:17:03.657Z,63.87
2022-12-25T06:18:03.517Z,59.24
2022-12-25T06:19:03.515Z,59.20
2022-12-25T06:20:03.520Z,59.30
2022-12-25T06:21:03.458Z,65.62
2022-12-25T06:22:03.496Z,64.68
2022-12-25T06:23:03.548Z,63.41
2022-12-25T06:24:03.544Z,61.91
2022-12-25T06:25:03.447Z,62.23
2022-12-25T06:26:03.488Z,59.57
2022-12-25T06:27:03.441Z,59.31
2022-12-25T06:28:03.440Z,64.83
2022-12-25T06:29:03.466Z,63.04
2022-12-25T06:30:03.407Z,60.86
2022-12-25T06:31:04.430Z,59.30
2022-12-25T06:32:03.417Z,59.41
2022-12-25T06:33:03.434Z,59.37
2022-12-25T06:34:03.388Z,59.51
2022-12-25T06:35:03.467Z,59.34
2022-12-25T06:36:03.384Z,62.74
2022-12-25T06:37:03.375Z,61.04
2022-12-25T06:38:03.396Z,59.23
2022-12-25T06:39:03.386Z,63.00
2022-12-25T06:40:03.357Z,61.73
2022-12-25T06:41:03.446Z,59.07
2022-12-25T06:42:03.350Z,62.23
2022-12-25T06:43:04.235Z,66.83
2022-12-25T06:44:03.375Z,58.83
2022-12-25T06:45:03.338Z,59.08
2022-12-25T06:46:03.357Z,61.07
2022-12-25T06:47:03.396Z,59.34
2022-12-25T06:48:03.331Z,66.83
2022-12-25T06:49:03.303Z,58.93
2022-12-25T06:50:03.347Z,62.39
2022-12-25T06:51:03.306Z,58.75
2022-12-25T06:52:03.296Z,62.76
2022-12-25T06:53:03.325Z,58.82
2022-12-25T06:54:03.313Z,62.61
2022-12-25T06:55:03.284Z,58.77
2022-12-25T06:56:03.300Z,66.09
2022-12-25T06:57:03.273Z,65.25
2022-12-25T06:58:03.261Z,62.36
2022-12-25T06:59:03.305Z,65.92
2022-12-25T07:00:03.298Z,60.66
2022-12-25T07:01:03.267Z,64.30
2022-12-25T07:02:03.408Z,66.26
2022-12-25T07:03:03.470Z,65.92
2022-12-25T07:04:03.235Z,66.96
2022-12-25T07:05:03.219Z,64.28
2022-12-25T07:06:03.282Z,66.60
2022-12-25T07:07:08.372Z,61.59
2022-12-25T07:08:05.208Z,59.43
2022-12-25T07:09:03.238Z,59.23
2022-12-25T07:10:03.201Z,66.96
2022-12-25T07:11:03.186Z,60.88
2022-12-25T07:12:03.247Z,60.99
2022-12-25T07:13:03.558Z,60.75
2022-12-25T07:14:03.175Z,62.60
2022-12-25T07:15:04.156Z,66.41
2022-12-25T07:16:03.234Z,61.02
2022-12-25T07:17:03.148Z,64.73
2022-12-25T07:18:03.134Z,59.29
2022-12-25T07:19:03.151Z,62.76
2022-12-25T07:20:03.150Z,62.98
2022-12-25T07:21:03.135Z,64.10
2022-12-25T07:22:03.150Z,59.31
2022-12-25T07:23:03.111Z,59.91
2022-12-25T07:24:03.101Z,64.11
2022-12-25T07:25:03.136Z,59.26
2022-12-25T07:26:03.100Z,61.44
2022-12-25T07:27:03.102Z,62.84
2022-12-25T07:28:03.107Z,61.72
2022-12-25T07:29:03.090Z,59.25
2022-12-25T07:30:03.090Z,59.09
2022-12-25T07:31:03.118Z,61.70
2022-12-25T07:32:03.112Z,59.55
2022-12-25T07:33:03.071Z,62.95
2022-12-25T07:34:03.083Z,68.48
2022-12-25T07:35:03.079Z,65.77
2022-12-25T07:36:04.047Z,67.82
2022-12-25T07:37:03.077Z,60.08
2022-12-25T07:38:03.058Z,59.23
2022-12-25T07:39:03.032Z,63.65
2022-12-25T07:40:03.105Z,62.77
2022-12-25T07:41:03.023Z,61.97
2022-12-25T07:42:03.013Z,63.18
2022-12-25T07:43:03.042Z,61.37
2022-12-25T07:44:03.010Z,59.35
2022-12-25T07:45:02.992Z,63.85
2022-12-25T07:46:03.069Z,65.78
2022-12-25T07:47:02.984Z,64.44
2022-12-25T07:48:05.890Z,69.92
2022-12-25T07:49:03.999Z,59.00
2022-12-25T07:50:02.968Z,62.46
2022-12-25T07:51:02.958Z,59.14
2022-12-25T07:52:02.977Z,59.36
2022-12-25T07:53:02.963Z,65.31
2022-12-25T07:54:02.943Z,61.64
2022-12-25T07:55:02.953Z,59.23
2022-12-25T07:56:02.947Z,60.63
2022-12-25T07:57:04.279Z,59.03
2022-12-25T07:58:02.913Z,64.73
2022-12-25T07:59:02.904Z,68.87
2022-12-25T08:00:02.945Z,64.03
2022-12-25T08:01:03.059Z,68.47
2022-12-25T08:02:03.191Z,60.72
2022-12-25T08:03:03.127Z,69.63
2022-12-25T08:04:02.995Z,58.77
2022-12-25T08:05:02.876Z,62.75
2022-12-25T08:06:02.912Z,67.00
2022-12-25T08:07:02.861Z,67.73
2022-12-25T08:08:02.866Z,66.80
2022-12-25T08:09:02.887Z,65.96
2022-12-25T08:10:02.859Z,64.03
2022-12-25T08:11:02.845Z,60.96
2022-12-25T08:12:02.878Z,62.49
2022-12-25T08:13:02.886Z,64.87
2022-12-25T08:14:02.845Z,62.82
2022-12-25T08:15:03.525Z,62.24
2022-12-25T08:16:02.853Z,64.61
2022-12-25T08:17:02.969Z,66.71
2022-12-25T08:18:02.805Z,63.56
2022-12-25T08:19:02.783Z,65.71
2022-12-25T08:20:03.792Z,63.95
2022-12-25T08:21:02.801Z,65.18
2022-12-25T08:22:02.797Z,67.91
2022-12-25T08:23:02.771Z,71.09
2022-12-25T08:24:02.796Z,63.29
2022-12-25T08:25:02.762Z,61.73
2022-12-25T08:26:05.552Z,63.61
2022-12-25T08:27:03.770Z,67.03
2022-12-25T08:28:02.754Z,64.38
2022-12-25T08:29:02.821Z,64.12
2022-12-25T08:30:02.744Z,66.54
2022-12-25T08:31:02.814Z,66.28
2022-12-25T08:32:02.715Z,62.87
2022-12-25T08:33:02.733Z,67.45
2022-12-25T08:34:02.711Z,66.10
2022-12-25T08:35:02.711Z,71.02
2022-12-25T08:36:02.697Z,66.37
2022-12-25T08:37:02.698Z,66.99
2022-12-25T08:38:02.681Z,67.48
2022-12-25T08:39:03.575Z,70.55
2022-12-25T08:40:03.690Z,70.04
2022-12-25T08:41:02.678Z,70.60
2022-12-25T08:42:02.732Z,71.72
2022-12-25T08:43:02.665Z,69.48
2022-12-25T08:44:02.690Z,72.34
2022-12-25T08:45:02.658Z,69.97
2022-12-25T08:46:02.721Z,67.87
2022-12-25T08:47:02.637Z,69.76
2022-12-25T08:48:02.701Z,65.17
2022-12-25T08:49:02.636Z,62.72
2022-12-25T08:50:02.646Z,65.47
2022-12-25T08:51:02.652Z,69.91
2022-12-25T08:52:02.605Z,65.75
2022-12-25T08:53:02.609Z,66.81
2022-12-25T08:54:02.608Z,68.76
2022-12-25T08:55:02.623Z,69.78
2022-12-25T08:56:02.586Z,72.06
2022-12-25T08:57:03.178Z,67.70
2022-12-25T08:58:03.602Z,68.78
2022-12-25T08:59:02.569Z,70.63
2022-12-25T09:00:02.571Z,71.79
2022-12-25T09:01:02.597Z,72.56
2022-12-25T09:02:02.781Z,69.11
2022-12-25T09:03:02.765Z,67.99
2022-12-25T09:04:02.560Z,73.07
2022-12-25T09:05:02.588Z,71.95
2022-12-25T09:06:02.538Z,71.25
2022-12-25T09:07:02.521Z,66.05
2022-12-25T09:08:02.776Z,60.02
2022-12-25T09:09:02.610Z,67.61
2022-12-25T09:10:02.533Z,64.91
2022-12-25T09:11:02.545Z,67.41
2022-12-25T09:12:02.519Z,63.25
2022-12-25T09:13:02.499Z,70.41
2022-12-25T09:14:02.477Z,70.05
2022-12-25T09:15:02.515Z,71.14
2022-12-25T09:16:02.537Z,62.98
2022-12-25T09:17:02.476Z,69.25
2022-12-25T09:18:02.484Z,69.94
2022-12-25T09:19:02.457Z,65.42
2022-12-25T09:20:03.397Z,68.32
2022-12-25T09:21:02.442Z,66.19
2022-12-25T09:22:02.492Z,64.92
2022-12-25T09:23:02.445Z,72.01
2022-12-25T09:24:02.431Z,64.40
2022-12-25T09:25:02.487Z,68.81
2022-12-25T09:26:02.429Z,67.64
2022-12-25T09:27:02.482Z,62.35
2022-12-25T09:28:02.417Z,69.92
2022-12-25T09:29:02.399Z,57.41
2022-12-25T09:30:02.412Z,70.31
2022-12-25T09:31:02.430Z,65.40
2022-12-25T09:32:02.440Z,71.65
2022-12-25T09:33:02.381Z,72.42
2022-12-25T09:34:02.393Z,63.52
2022-12-25T09:35:02.365Z,66.79
2022-12-25T09:36:02.360Z,69.21
2022-12-25T09:37:02.391Z,71.21
2022-12-25T09:38:02.371Z,64.55
2022-12-25T09:39:02.346Z,63.98
2022-12-25T09:40:02.357Z,68.93
2022-12-25T09:41:02.339Z,64.14
2022-12-25T09:42:02.362Z,74.89
2022-12-25T09:43:02.336Z,67.11
2022-12-25T09:44:02.453Z,70.00
2022-12-25T09:45:02.298Z,68.72
2022-12-25T09:46:02.497Z,65.77
2022-12-25T09:47:02.389Z,68.75
2022-12-25T09:48:02.299Z,65.75
2022-12-25T09:49:03.291Z,71.33
2022-12-25T09:50:02.291Z,69.23
2022-12-25T09:51:02.260Z,70.05
2022-12-25T09:52:02.289Z,71.27
2022-12-25T09:53:02.285Z,68.05
2022-12-25T09:54:02.254Z,68.60
2022-12-25T09:55:02.266Z,66.96
2022-12-25T09:56:02.231Z,68.39
2022-12-25T09:57:02.249Z,67.45
2022-12-25T09:58:02.241Z,71.71
2022-12-25T09:59:02.215Z,66.41
2022-12-25T10:00:02.203Z,72.54
2022-12-25T10:01:02.259Z,71.53
2022-12-25T10:02:02.332Z,68.82
2022-12-25T10:03:02.476Z,61.90
2022-12-25T10:04:02.192Z,67.61
2022-12-25T10:05:02.177Z,71.73
2022-12-25T10:06:02.163Z,70.27
2022-12-25T10:07:02.182Z,68.00
2022-12-25T10:08:02.182Z,66.87
2022-12-25T10:09:02.162Z,66.11
2022-12-25T10:10:02.144Z,68.12
2022-12-25T10:11:02.127Z,64.69
2022-12-25T10:12:02.168Z,73.03
2022-12-25T10:13:02.141Z,69.14
2022-12-25T10:14:02.130Z,73.81
2022-12-25T10:15:02.159Z,72.71
2022-12-25T10:16:02.120Z,70.62
2022-12-25T10:17:02.161Z,66.41
2022-12-25T10:18:02.119Z,70.86
2022-12-25T10:19:02.100Z,63.35
2022-12-25T10:20:02.118Z,73.51
2022-12-25T10:21:02.067Z,69.05
2022-12-25T10:22:02.075Z,70.77
2022-12-25T10:23:02.121Z,72.70
2022-12-25T10:24:02.072Z,71.19
2022-12-25T10:25:02.075Z,72.43
2022-12-25T10:26:02.041Z,69.47
2022-12-25T10:27:02.051Z,69.38
2022-12-25T10:28:02.027Z,73.79
2022-12-25T10:29:02.080Z,67.03
2022-12-25T10:30:02.039Z,70.18
2022-12-25T10:31:02.066Z,70.80
2022-12-25T10:32:01.998Z,75.16
2022-12-25T10:33:02.023Z,70.52
2022-12-25T10:34:02.009Z,69.82
2022-12-25T10:35:01.998Z,72.19
2022-12-25T10:36:02.985Z,72.00
2022-12-25T10:37:02.009Z,73.95
2022-12-25T10:38:01.959Z,73.17
2022-12-25T10:39:01.991Z,68.74
2022-12-25T10:40:01.994Z,73.05
2022-12-25T10:41:01.982Z,71.86
2022-12-25T10:42:01.931Z,72.63
2022-12-25T10:43:01.976Z,70.45
2022-12-25T10:44:01.933Z,72.33
2022-12-25T10:45:01.963Z,73.01
2022-12-25T10:46:01.966Z,75.04
2022-12-25T10:47:01.952Z,72.28
2022-12-25T10:48:06.879Z,73.13
2022-12-25T10:49:03.918Z,72.64
2022-12-25T10:50:01.922Z,72.45
2022-12-25T10:51:01.895Z,70.87
2022-12-25T10:52:01.873Z,77.53
2022-12-25T10:53:01.854Z,73.11
2022-12-25T10:54:01.883Z,69.78
2022-12-25T10:55:01.851Z,75.49
2022-12-25T10:56:01.865Z,72.75
2022-12-25T10:57:01.849Z,73.06
2022-12-25T10:58:02.060Z,75.30
2022-12-25T10:59:01.848Z,75.02
2022-12-25T11:00:01.844Z,76.69
2022-12-25T11:01:01.840Z,75.20
2022-12-25T11:02:01.926Z,73.11
2022-12-25T11:03:02.156Z,70.70
2022-12-25T11:04:01.836Z,72.95
2022-12-25T11:05:01.783Z,73.44
2022-12-25T11:06:01.798Z,77.15
2022-12-25T11:07:01.786Z,75.60
2022-12-25T11:08:02.980Z,76.10
2022-12-25T11:09:01.791Z,73.28
2022-12-25T11:10:05.089Z,73.73
2022-12-25T11:11:02.829Z,73.74
2022-12-25T11:12:01.745Z,76.70
2022-12-25T11:13:01.728Z,72.99
2022-12-25T11:14:01.735Z,76.51
2022-12-25T11:15:01.720Z,69.17
2022-12-25T11:16:01.779Z,75.46
2022-12-25T11:17:01.690Z,71.48
2022-12-25T11:18:01.681Z,69.11
2022-12-25T11:19:02.745Z,74.44
2022-12-25T11:20:01.741Z,72.84
2022-12-25T11:21:01.679Z,70.75
2022-12-25T11:22:01.701Z,72.50
2022-12-25T11:23:01.681Z,68.45
2022-12-25T11:24:01.739Z,69.35
2022-12-25T11:25:01.672Z,70.82
2022-12-25T11:26:01.634Z,75.44
2022-12-25T11:27:01.689Z,69.20
2022-12-25T11:28:01.644Z,69.37
2022-12-25T11:29:01.639Z,75.43
2022-12-25T11:30:01.638Z,72.05
2022-12-25T11:31:01.766Z,70.01
2022-12-25T11:32:01.603Z,67.27
2022-12-25T11:33:01.595Z,69.06
2022-12-25T11:34:01.584Z,72.98
2022-12-25T11:35:01.575Z,70.70
2022-12-25T11:36:01.620Z,68.42
2022-12-25T11:37:01.688Z,62.46
2022-12-25T11:38:01.598Z,71.69
2022-12-25T11:39:01.721Z,72.57
2022-12-25T11:40:01.586Z,70.27
2022-12-25T11:41:01.552Z,72.46
2022-12-25T11:42:01.548Z,69.48
2022-12-25T11:43:07.547Z,76.86
2022-12-25T11:44:03.515Z,72.96
2022-12-25T11:45:01.536Z,72.85
2022-12-25T11:46:01.537Z,74.12
2022-12-25T11:47:01.623Z,74.72
2022-12-25T11:48:01.513Z,74.25
2022-12-25T11:49:02.497Z,74.63
2022-12-25T11:50:01.513Z,72.88
2022-12-25T11:51:01.489Z,73.54
2022-12-25T11:52:01.478Z,71.33
2022-12-25T11:53:01.462Z,72.86
2022-12-25T11:54:01.461Z,64.63
2022-12-25T11:55:01.452Z,71.33
2022-12-25T11:56:01.459Z,70.07
2022-12-25T11:57:01.438Z,69.38
2022-12-25T11:58:01.452Z,72.50
2022-12-25T11:59:01.415Z,74.26
2022-12-25T12:00:01.420Z,75.20
2022-12-25T12:01:01.411Z,74.87
2022-12-25T12:02:01.516Z,71.02
2022-12-25T12:03:10.231Z,73.24
2022-12-25T12:04:02.436Z,73.47
2022-12-25T12:05:01.948Z,72.24
2022-12-25T12:06:01.392Z,73.75
2022-12-25T12:07:01.361Z,75.49
2022-12-25T12:08:01.384Z,71.86
2022-12-25T12:09:01.348Z,72.10
2022-12-25T12:10:01.403Z,74.71
2022-12-25T12:11:01.386Z,71.19
2022-12-25T12:12:01.340Z,76.05
2022-12-25T12:13:01.336Z,66.77
2022-12-25T12:14:01.358Z,67.93
2022-12-25T12:15:01.329Z,72.10
2022-12-25T12:16:01.331Z,71.93
2022-12-25T12:17:01.293Z,73.81
2022-12-25T12:18:01.315Z,73.93
2022-12-25T12:19:01.272Z,73.37
2022-12-25T12:20:01.309Z,67.43
2022-12-25T12:21:01.276Z,76.02
2022-12-25T12:22:01.274Z,75.91
2022-12-25T12:23:01.283Z,73.18
2022-12-25T12:24:01.420Z,76.03
2022-12-25T12:25:01.263Z,73.23
2022-12-25T12:26:01.232Z,67.23
2022-12-25T12:27:01.245Z,67.32
2022-12-25T12:28:05.407Z,74.84
2022-12-25T12:29:02.280Z,74.91
2022-12-25T12:30:01.234Z,74.95
2022-12-25T12:31:01.192Z,75.90
2022-12-25T12:32:01.235Z,75.25
2022-12-25T12:33:01.235Z,71.38
2022-12-25T12:34:01.187Z,75.26
2022-12-25T12:35:01.205Z,69.00
2022-12-25T12:36:01.239Z,68.00
2022-12-25T12:37:01.174Z,73.75
2022-12-25T12:38:02.734Z,71.73
2022-12-25T12:39:01.149Z,71.41
2022-12-25T12:40:01.147Z,69.60
2022-12-25T12:41:01.127Z,77.28
2022-12-25T12:42:01.198Z,72.39
2022-12-25T12:43:01.178Z,73.73
2022-12-25T12:44:01.193Z,70.01
2022-12-25T12:45:01.121Z,75.56
2022-12-25T12:46:01.148Z,74.83
2022-12-25T12:47:01.100Z,74.66
2022-12-25T12:48:01.101Z,67.28
2022-12-25T12:49:01.094Z,67.14
2022-12-25T12:50:01.083Z,70.06
2022-12-25T12:51:01.164Z,72.29
2022-12-25T12:52:01.122Z,73.12